Temp: 3.6°C   Baro: 1026.3mb
  Wind: 0.9mph   Dir: ESE (123°)
  Rain: 0.0mm (0.0mm/hr)
  Solar: 84W/m2  Hum: 97%

Historic data

Bath Spa Weather Station Historical Data
Daily Summary for August 03, 2022 Units:  English    Metric   Both
Daily Weekly Monthly Yearly Custom
  High: Low: Average:
Temperature: 73.7 °F 61.2 °F 67.2 °F
Dew Point: 65.6 °F 55.6 °F 61.1 °F
Humidity: 90.8% 66% 81%
Wind Speed: 10.8mph 1mph 5.6mph
Wind Gust: 18mph - -
Wind- - WSW
Pressure: 29.96 in 29.91 in -
Precipitation: 0.00 in    
Historical Graphs
 
 
Tabular Data for August 03, 2022
Time Temperature Dew Point Pressure Wind Wind Speed Wind Gust Humidity Rainfall Rate (Hourly) solar
00:09 66.7 °F 61.6 °F 29.94 in SW 5.9 mph 12 mph 84% 0.00 in 0 W/m2
00:13 66.6 °F 61.5 °F 29.94 in SW 5.8 mph 14 mph 84% 0.00 in 0 W/m2
00:24 66.6 °F 61.5 °F 29.93 in SW 10.6 mph 15 mph 84% 0.00 in 0 W/m2
00:29 66.6 °F 61.5 °F 29.94 in SW 5 mph 15 mph 84% 0.00 in 0 W/m2
00:34 66.6 °F 61.5 °F 29.94 in WSW 5.3 mph 12 mph 84% 0.00 in 0 W/m2
00:39 66.6 °F 61.6 °F 29.94 in SW 7.8 mph 11 mph 84% 0.00 in 0 W/m2
00:44 66.7 °F 61.7 °F 29.94 in WSW 6.4 mph 11 mph 84% 0.00 in 0 W/m2
00:49 66.7 °F 61.9 °F 29.94 in SW 6.8 mph 15 mph 84.6% 0.00 in 0 W/m2
00:54 66.7 °F 62.1 °F 29.93 in SW 8.1 mph 13 mph 85% 0.00 in 0 W/m2
00:59 66.7 °F 61.8 °F 29.94 in SW 7.1 mph 17 mph 84.2% 0.00 in 0 W/m2
01:04 66.7 °F 61.7 °F 29.93 in SW 6.4 mph 11 mph 84% 0.00 in 0 W/m2
01:09 66.7 °F 61.7 °F 29.93 in WSW 6 mph 18 mph 84% 0.00 in 0 W/m2
01:14 66.7 °F 61.6 °F 29.93 in WSW 8.1 mph 13 mph 84% 0.00 in 0 W/m2
01:19 66.6 °F 61.5 °F 29.93 in SW 6.6 mph 14 mph 84% 0.00 in 0 W/m2
01:24 66.6 °F 61.5 °F 29.93 in SW 6.5 mph 14 mph 84% 0.00 in 0 W/m2
01:29 66.6 °F 61.8 °F 29.93 in SW 7.2 mph 14 mph 84.8% 0.00 in 0 W/m2
01:34 66.4 °F 61.7 °F 29.93 in WSW 5.2 mph 12 mph 85% 0.00 in 0 W/m2
01:39 66.3 °F 61.6 °F 29.93 in SW 5.8 mph 11 mph 85% 0.00 in 0 W/m2
01:44 66.1 °F 61.4 °F 29.93 in WSW 6.1 mph 12 mph 85% 0.00 in 0 W/m2
01:49 66 °F 61.3 °F 29.93 in SW 6.2 mph 10 mph 85% 0.00 in 0 W/m2
01:54 66 °F 61.3 °F 29.92 in SW 6.6 mph 14 mph 85% 0.00 in 0 W/m2
01:59 65.8 °F 61.2 °F 29.92 in SW 7.5 mph 12 mph 85% 0.00 in 0 W/m2
02:04 65.8 °F 61.5 °F 29.92 in SW 7.4 mph 12 mph 86% 0.00 in 0 W/m2
02:09 65.8 °F 61.5 °F 29.92 in SW 6 mph 13 mph 86% 0.00 in 0 W/m2
02:13 65.8 °F 61.4 °F 29.92 in SW 8.5 mph 12 mph 86% 0.00 in 0 W/m2
02:19 65.7 °F 61.3 °F 29.92 in SW 5.6 mph 11 mph 86% 0.00 in 0 W/m2
02:24 65.7 °F 61.3 °F 29.92 in SW 7.4 mph 14 mph 86% 0.00 in 0 W/m2
02:29 65.7 °F 61.3 °F 29.92 in SW 6.8 mph 14 mph 86% 0.00 in 0 W/m2
02:34 65.7 °F 61.3 °F 29.92 in SW 5.5 mph 11 mph 86% 0.00 in 0 W/m2
02:39 65.6 °F 61.3 °F 29.91 in WSW 6.4 mph 12 mph 86% 0.00 in 0 W/m2
02:44 65.5 °F 61.2 °F 29.91 in SW 3.5 mph 10 mph 86% 0.00 in 0 W/m2
02:49 65.6 °F 61.3 °F 29.91 in SW 4.8 mph 10 mph 86% 0.00 in 0 W/m2
02:54 65.5 °F 61.2 °F 29.91 in SW 5.2 mph 10 mph 86% 0.00 in 0 W/m2
02:59 65.5 °F 61.2 °F 29.91 in SW 7.7 mph 11 mph 86% 0.00 in 0 W/m2
03:04 65.5 °F 61.5 °F 29.91 in SW 6.2 mph 12 mph 87% 0.00 in 0 W/m2
03:09 65.5 °F 61.5 °F 29.91 in WSW 6.6 mph 12 mph 87% 0.00 in 0 W/m2
03:14 65.5 °F 61.5 °F 29.91 in SW 5 mph 11 mph 87% 0.00 in 0 W/m2
03:19 65.5 °F 61.5 °F 29.91 in SW 5 mph 12 mph 87% 0.00 in 0 W/m2
03:24 65.5 °F 61.5 °F 29.91 in SW 5.7 mph 10 mph 87% 0.00 in 0 W/m2
03:29 65.5 °F 61.5 °F 29.91 in SW 4.4 mph 10 mph 87% 0.00 in 0 W/m2
03:34 65.5 °F 61.5 °F 29.91 in SW 5.3 mph 9 mph 87% 0.00 in 0 W/m2
03:39 65.6 °F 61.6 °F 29.91 in SW 6.8 mph 11 mph 87% 0.00 in 0 W/m2
03:44 65.7 °F 61.7 °F 29.91 in SW 4.8 mph 11 mph 87% 0.00 in 0 W/m2
03:49 65.7 °F 61.7 °F 29.91 in SW 6.7 mph 11 mph 87% 0.00 in 0 W/m2
03:54 65.8 °F 61.8 °F 29.91 in SW 5.5 mph 10 mph 87% 0.00 in 0 W/m2
03:59 65.8 °F 61.9 °F 29.91 in SW 6.6 mph 13 mph 87% 0.00 in 0 W/m2
04:04 65.8 °F 61.9 °F 29.91 in SSW 6.8 mph 12 mph 87% 0.00 in 0 W/m2
04:09 65.8 °F 61.9 °F 29.91 in SW 5.2 mph 12 mph 87% 0.00 in 0 W/m2
04:14 65.8 °F 61.9 °F 29.91 in SW 6.7 mph 14 mph 87% 0.00 in 0 W/m2
04:19 65.8 °F 62 °F 29.91 in SW 5.8 mph 14 mph 87.2% 0.00 in 0 W/m2
04:24 65.7 °F 62.1 °F 29.91 in SW 4.5 mph 10 mph 88% 0.00 in 0 W/m2
04:29 65.7 °F 62.1 °F 29.91 in SW 6.4 mph 11 mph 88% 0.00 in 0 W/m2
04:34 65.5 °F 61.9 °F 29.91 in SW 6.2 mph 11 mph 88% 0.00 in 0 W/m2
04:39 65.5 °F 61.9 °F 29.91 in SW 7.4 mph 12 mph 88% 0.00 in 0 W/m2
04:44 65.4 °F 61.8 °F 29.91 in SW 4.8 mph 12 mph 88% 0.00 in 0 W/m2
04:49 65.3 °F 61.8 °F 29.91 in SW 7.2 mph 12 mph 88.2% 0.00 in 0 W/m2
04:54 65.3 °F 62.1 °F 29.91 in SW 5.8 mph 12 mph 89% 0.00 in 0 W/m2
04:59 65.3 °F 62.1 °F 29.91 in SW 6.8 mph 12 mph 89% 0.00 in 0 W/m2
05:04 65.3 °F 62.1 °F 29.91 in SW 4.5 mph 11 mph 89% 0.00 in 0 W/m2
05:09 65.3 °F 62.1 °F 29.91 in SW 4.7 mph 10 mph 89% 0.00 in 0 W/m2
05:14 65.3 °F 62.1 °F 29.91 in SSW 3.6 mph 10 mph 89% 0.00 in 0 W/m2
05:19 65.3 °F 62.1 °F 29.91 in SW 4.4 mph 8 mph 89% 0.00 in 0 W/m2
05:24 65.3 °F 62.1 °F 29.91 in WSW 3.4 mph 8 mph 89% 0.00 in 0 W/m2
05:29 65.3 °F 62.1 °F 29.91 in SW 6.8 mph 12 mph 89% 0.00 in 0 W/m2
05:34 65.3 °F 62.1 °F 29.91 in SW 5.7 mph 12 mph 89% 0.00 in 0 W/m2
05:39 65.3 °F 62.1 °F 29.91 in SSW 3.5 mph 9 mph 89.4% 0.00 in 5 W/m2
05:44 65.3 °F 62.2 °F 29.91 in SW 5.4 mph 12 mph 89.6% 0.00 in 7 W/m2
05:49 65.3 °F 62.2 °F 29.91 in SW 4.2 mph 12 mph 90% 0.00 in 11 W/m2
05:54 65.3 °F 62.2 °F 29.91 in SW 3.7 mph 9 mph 90% 0.00 in 18 W/m2
05:59 65.3 °F 62.2 °F 29.91 in SW 6.3 mph 10 mph 90% 0.00 in 19 W/m2
06:04 65.5 °F 62.4 °F 29.91 in SW 4.6 mph 9 mph 90% 0.00 in 12 W/m2
06:09 65.6 °F 62.3 °F 29.91 in SW 5.5 mph 9 mph 89.6% 0.00 in 11 W/m2
06:14 65.7 °F 62.3 °F 29.91 in SW 4.5 mph 9 mph 89% 0.00 in 12 W/m2
06:19 65.8 °F 62.6 °F 29.91 in SW 4.4 mph 9 mph 89.4% 0.00 in 12 W/m2
06:24 65.9 °F 62.5 °F 29.91 in SW 4.9 mph 10 mph 89% 0.00 in 18 W/m2
06:29 66 °F 62.6 °F 29.91 in SW 5.8 mph 10 mph 89% 0.00 in 23 W/m2
06:34 66 °F 62.6 °F 29.91 in SW 4.2 mph 10 mph 89% 0.00 in 25 W/m2
06:39 66 °F 62.6 °F 29.91 in SW 4.3 mph 9 mph 89% 0.00 in 25 W/m2
06:44 66 °F 62.6 °F 29.92 in SW 6.2 mph 14 mph 89% 0.00 in 35 W/m2
06:49 66.2 °F 62.8 °F 29.92 in SW 6.7 mph 14 mph 89% 0.00 in 35 W/m2
06:54 66.3 °F 62.9 °F 29.91 in SW 5.3 mph 14 mph 89% 0.00 in 33 W/m2
06:59 66.3 °F 62.9 °F 29.91 in SW 4.8 mph 9 mph 89% 0.00 in 46 W/m2
07:04 66.4 °F 63 °F 29.91 in SW 4.1 mph 9 mph 89% 0.00 in 69 W/m2
07:09 66.4 °F 63 °F 29.91 in SW 6.2 mph 13 mph 89% 0.00 in 123 W/m2
07:14 66.4 °F 63 °F 29.92 in SW 6.3 mph 15 mph 89% 0.00 in 127 W/m2
07:19 66.4 °F 63 °F 29.92 in SSW 8 mph 15 mph 89% 0.00 in 69 W/m2
07:24 66.4 °F 63 °F 29.92 in South 6 mph 13 mph 89% 0.00 in 116 W/m2
07:29 66.6 °F 63.1 °F 29.92 in SW 4.6 mph 14 mph 89% 0.00 in 141 W/m2
07:34 66.6 °F 63.2 °F 29.92 in SSW 6.1 mph 13 mph 89% 0.00 in 156 W/m2
07:39 66.6 °F 63.2 °F 29.92 in SSW 4.4 mph 12 mph 89% 0.00 in 142 W/m2
07:44 66.4 °F 63.3 °F 29.92 in SSW 7 mph 13 mph 89.8% 0.00 in 151 W/m2
07:49 66.2 °F 63.1 °F 29.92 in SW 7.8 mph 15 mph 90% 0.00 in 248 W/m2
07:54 66.4 °F 63.3 °F 29.92 in SSW 6.3 mph 15 mph 90% 0.00 in 251 W/m2
07:59 66.5 °F 63.7 °F 29.92 in SW 6.8 mph 15 mph 90.8% 0.00 in 339 W/m2
08:04 66.8 °F 64 °F 29.92 in SSW 5.7 mph 13 mph 90.8% 0.00 in 381 W/m2
08:09 66.9 °F 64 °F 29.92 in SW 6.6 mph 13 mph 90.4% 0.00 in 267 W/m2
08:14 66.7 °F 63.7 °F 29.92 in SW 7.5 mph 13 mph 90% 0.00 in 234 W/m2
08:19 66.7 °F 63.7 °F 29.92 in SSW 6.6 mph 13 mph 90% 0.00 in 132 W/m2
08:24 66.7 °F 63.7 °F 29.92 in SW 4.8 mph 9 mph 90% 0.00 in 125 W/m2
08:29 66.8 °F 63.8 °F 29.93 in SSW 5.7 mph 11 mph 90% 0.00 in 183 W/m2
08:34 66.7 °F 63.7 °F 29.93 in SW 6.8 mph 14 mph 90% 0.00 in 181 W/m2
08:39 66.8 °F 63.8 °F 29.93 in SSW 4.5 mph 12 mph 90% 0.00 in 155 W/m2
08:44 66.9 °F 63.9 °F 29.93 in SSW 5.6 mph 8 mph 90% 0.00 in 367 W/m2
08:49 67.3 °F 64.2 °F 29.93 in SW 6 mph 13 mph 90% 0.00 in 367 W/m2
08:54 67.7 °F 64.5 °F 29.93 in SW 6.4 mph 11 mph 89.6% 0.00 in 264 W/m2
08:59 67.7 °F 64.3 °F 29.93 in SW 4.3 mph 9 mph 89% 0.00 in 179 W/m2
09:04 67.6 °F 64.2 °F 29.93 in SSW 7.2 mph 11 mph 89% 0.00 in 169 W/m2
09:09 67.6 °F 64.2 °F 29.93 in SW 4.5 mph 11 mph 89% 0.00 in 148 W/m2
09:14 67.5 °F 64 °F 29.93 in SSW 6.1 mph 11 mph 89% 0.00 in 169 W/m2
09:18 67.5 °F 64 °F 29.93 in SSW 5.5 mph 12 mph 89% 0.00 in 236 W/m2
09:24 67.6 °F 64.1 °F 29.93 in SSW 5.6 mph 15 mph 89% 0.00 in 239 W/m2
09:29 67.7 °F 64.3 °F 29.93 in SSW 5.2 mph 12 mph 88.8% 0.00 in 230 W/m2
09:34 68.2 °F 64.6 °F 29.93 in SW 4.5 mph 12 mph 88.4% 0.00 in 394 W/m2
09:39 68.7 °F 64.9 °F 29.93 in SSW 3.5 mph 11 mph 88% 0.00 in 587 W/m2
09:44 69.4 °F 65.5 °F 29.93 in SSW 4.9 mph 9 mph 87.2% 0.00 in 598 W/m2
09:49 69.8 °F 65.6 °F 29.92 in SW 4.1 mph 7 mph 86.4% 0.00 in 508 W/m2
09:54 70 °F 65.4 °F 29.93 in SW 6.4 mph 14 mph 85.2% 0.00 in 508 W/m2
09:59 69.6 °F 64.8 °F 29.93 in SW 7.1 mph 14 mph 84.6% 0.00 in 348 W/m2
10:04 69.6 °F 64.6 °F 29.93 in SW 9.6 mph 16 mph 84% 0.00 in 330 W/m2
10:09 69.8 °F 64.7 °F 29.93 in SW 7.8 mph 15 mph 84% 0.00 in 369 W/m2
10:14 70 °F 64.9 °F 29.93 in WSW 5.6 mph 15 mph 83.8% 0.00 in 334 W/m2
10:19 70.3 °F 65 °F 29.93 in SSW 7 mph 11 mph 83.2% 0.00 in 274 W/m2
10:24 70.2 °F 64.8 °F 29.93 in SW 6.3 mph 12 mph 83% 0.00 in 225 W/m2
10:29 69.8 °F 64.7 °F 29.93 in SSW 6.6 mph 11 mph 83.6% 0.00 in 206 W/m2
10:34 69.5 °F 64.7 °F 29.93 in SW 7.4 mph 14 mph 84.5% 0.00 in 155 W/m2
10:39 68.5 °F 64 °F 29.93 in West 9.2 mph 16 mph 85.4% 0.00 in 90 W/m2
10:44 67 °F 63 °F 29.93 in West 7.6 mph 14 mph 86.8% 0.00 in 111 W/m2
10:49 66.1 °F 62.6 °F 29.93 in West 6.6 mph 15 mph 88.2% 0.00 in 165 W/m2
10:54 65.6 °F 62.2 °F 29.94 in West 6.6 mph 15 mph 89% 0.00 in 213 W/m2
10:59 65.5 °F 62.2 °F 29.94 in West 6 mph 12 mph 89% 0.00 in 339 W/m2
11:04 65.7 °F 62.6 °F 29.94 in West 5.4 mph 11 mph 90% 0.00 in 330 W/m2
11:09 65.9 °F 62.9 °F 29.94 in West 5.5 mph 11 mph 90% 0.00 in 320 W/m2
11:14 66.2 °F 63.1 °F 29.94 in WSW 5.2 mph 8 mph 90% 0.00 in 290 W/m2
11:19 66.1 °F 63.1 °F 29.94 in WNW 4.1 mph 10 mph 90% 0.00 in 278 W/m2
11:24 65.7 °F 62.6 °F 29.94 in WNW 8 mph 14 mph 89.8% 0.00 in 206 W/m2
11:29 65.2 °F 62 °F 29.94 in West 8.6 mph 12 mph 89% 0.00 in 174 W/m2
11:34 65.1 °F 61.9 °F 29.95 in West 6.8 mph 13 mph 89% 0.00 in 207 W/m2
11:39 65.3 °F 62.1 °F 29.95 in West 6.6 mph 9 mph 89% 0.00 in 253 W/m2
11:44 65.4 °F 62 °F 29.95 in West 6.7 mph 10 mph 88.6% 0.00 in 309 W/m2
11:49 65.5 °F 61.9 °F 29.95 in West 8.2 mph 11 mph 88% 0.00 in 381 W/m2
11:54 65.6 °F 62 °F 29.95 in WSW 5.3 mph 10 mph 88% 0.00 in 353 W/m2
11:59 65.7 °F 61.7 °F 29.95 in WSW 5.9 mph 10 mph 87% 0.00 in 404 W/m2
12:04 65.8 °F 61.9 °F 29.95 in West 4.6 mph 9 mph 87% 0.00 in 301 W/m2
12:09 65.9 °F 62 °F 29.95 in West 5.4 mph 8 mph 87% 0.00 in 258 W/m2
12:14 66.2 °F 62.2 °F 29.95 in WSW 5.2 mph 8 mph 87% 0.00 in 218 W/m2
12:19 66 °F 62.1 °F 29.95 in West 5.4 mph 9 mph 87% 0.00 in 171 W/m2
12:24 65.9 °F 61.9 °F 29.95 in WSW 4.4 mph 9 mph 87% 0.00 in 237 W/m2
12:29 65.5 °F 61.8 °F 29.95 in West 6.2 mph 12 mph 87.6% 0.00 in 283 W/m2
12:34 65.5 °F 62 °F 29.95 in West 2.8 mph 9 mph 88.2% 0.00 in 288 W/m2
12:39 65.5 °F 62.2 °F 29.95 in West 3.9 mph 6 mph 89% 0.00 in 313 W/m2
12:44 65.6 °F 62.2 °F 29.95 in WSW 5.8 mph 9 mph 89% 0.00 in 236 W/m2
12:49 65.5 °F 62.2 °F 29.95 in West 3.6 mph 7 mph 89% 0.00 in 195 W/m2
12:54 65.7 °F 62.1 °F 29.95 in West 3.5 mph 6 mph 88.4% 0.00 in 192 W/m2
12:59 65.7 °F 62.1 °F 29.95 in West 6.3 mph 8 mph 88% 0.00 in 199 W/m2
13:04 65.7 °F 61.8 °F 29.95 in West 5.5 mph 10 mph 87.2% 0.00 in 207 W/m2
13:09 66 °F 61.8 °F 29.95 in WNW 6.8 mph 11 mph 86.4% 0.00 in 234 W/m2
13:14 66.1 °F 61.5 °F 29.96 in West 5.7 mph 11 mph 85.2% 0.00 in 292 W/m2
13:19 66.4 °F 61.2 °F 29.96 in WSW 5.7 mph 12 mph 83.8% 0.00 in 281 W/m2
13:24 66.5 °F 61.1 °F 29.96 in West 5.2 mph 10 mph 83% 0.00 in 318 W/m2
13:29 66.7 °F 61.1 °F 29.96 in West 6.5 mph 11 mph 82.2% 0.00 in 339 W/m2
13:34 66.9 °F 61 °F 29.96 in West 6 mph 10 mph 81% 0.00 in 376 W/m2
13:39 67.5 °F 61.1 °F 29.96 in West 5.8 mph 12 mph 80% 0.00 in 390 W/m2
13:44 67.5 °F 60.8 °F 29.96 in West 5 mph 9 mph 79% 0.00 in 613 W/m2
13:49 67.6 °F 60.5 °F 29.96 in West 4.7 mph 11 mph 78% 0.00 in 626 W/m2
13:54 68.4 °F 61 °F 29.96 in WSW 3.6 mph 8 mph 77.4% 0.00 in 452 W/m2
13:59 68.5 °F 60.6 °F 29.96 in WSW 6.2 mph 10 mph 75.8% 0.00 in 334 W/m2
14:04 68.4 °F 60.1 °F 29.95 in West 5 mph 11 mph 75% 0.00 in 446 W/m2
14:09 68.5 °F 60.4 °F 29.95 in West 8.2 mph 15 mph 75.4% 0.00 in 272 W/m2
14:14 68.4 °F 60.1 °F 29.95 in West 7.4 mph 15 mph 75% 0.00 in 297 W/m2
14:19 67.7 °F 60 °F 29.96 in WSW 5.2 mph 14 mph 76.4% 0.00 in 390 W/m2
14:24 67.6 °F 60.1 °F 29.95 in WSW 5.4 mph 9 mph 76.8% 0.00 in 392 W/m2
14:29 68.1 °F 60.3 °F 29.95 in WSW 8 mph 14 mph 76.3% 0.00 in 396 W/m2
14:34 69 °F 60.4 °F 29.95 in West 4.8 mph 14 mph 74.2% 0.00 in 513 W/m2
14:39 69.4 °F 60.2 °F 29.95 in WSW 7.3 mph 12 mph 72.2% 0.00 in 555 W/m2
14:44 69.9 °F 60.1 °F 29.95 in West 4.7 mph 11 mph 71.2% 0.00 in 617 W/m2
14:49 70.4 °F 60.5 °F 29.95 in West 5.9 mph 12 mph 71% 0.00 in 613 W/m2
14:54 70.9 °F 60.6 °F 29.95 in West 8 mph 14 mph 70% 0.00 in 613 W/m2
14:59 70.5 °F 60.1 °F 29.95 in West 8.2 mph 13 mph 69.6% 0.00 in 383 W/m2
15:04 70.7 °F 60.4 °F 29.95 in WSW 5.2 mph 11 mph 69.8% 0.00 in 376 W/m2
15:09 70.7 °F 60.2 °F 29.95 in WSW 6.3 mph 11 mph 69.2% 0.00 in 469 W/m2
15:14 71.1 °F 60.7 °F 29.95 in West 4.1 mph 10 mph 69.8% 0.00 in 485 W/m2
15:19 71.4 °F 60.8 °F 29.95 in NW 6.6 mph 9 mph 69.2% 0.00 in 738 W/m2
15:24 71.6 °F 60.5 °F 29.95 in WNW 6.8 mph 13 mph 68.2% 0.00 in 404 W/m2
15:29 71.1 °F 59.9 °F 29.95 in NW 7 mph 12 mph 68% 0.00 in 476 W/m2
15:34 71.1 °F 59.9 °F 29.94 in West 5.2 mph 13 mph 68% 0.00 in 323 W/m2
15:39 71.1 °F 59.9 °F 29.94 in West 5.5 mph 11 mph 68% 0.00 in 455 W/m2
15:44 71.6 °F 61.2 °F 29.94 in West 5 mph 11 mph 69.8% 0.00 in 800 W/m2
15:49 72.3 °F 62 °F 29.94 in WNW 5.8 mph 13 mph 70.2% 0.00 in 758 W/m2
15:54 72.4 °F 62.2 °F 29.94 in WNW 6.7 mph 14 mph 70.2% 0.00 in 745 W/m2
15:59 72.1 °F 62.2 °F 29.94 in WNW 8.5 mph 16 mph 71% 0.00 in 710 W/m2
16:04 72.5 °F 62.4 °F 29.94 in WNW 7.4 mph 16 mph 70.6% 0.00 in 708 W/m2
16:09 73 °F 62.2 °F 29.94 in West 6.6 mph 14 mph 69.2% 0.00 in 671 W/m2
16:14 73.2 °F 62.4 °F 29.93 in WSW 8.9 mph 15 mph 69% 0.00 in 650 W/m2
16:19 73.4 °F 62.1 °F 29.93 in WSW 6.1 mph 13 mph 67.8% 0.00 in 693 W/m2
16:24 73.1 °F 61.9 °F 29.93 in WSW 6.8 mph 14 mph 67.8% 0.00 in 721 W/m2
16:29 73.6 °F 62.4 °F 29.93 in WSW 6.6 mph 13 mph 68% 0.00 in 654 W/m2
16:34 73.7 °F 62.1 °F 29.93 in West 5.2 mph 13 mph 67.2% 0.00 in 631 W/m2
16:39 73.6 °F 61.6 °F 29.93 in West 5.4 mph 13 mph 66.4% 0.00 in 642 W/m2
16:44 73.6 °F 61.7 °F 29.93 in West 7.2 mph 13 mph 66.6% 0.00 in 629 W/m2
16:49 73.3 °F 61.4 °F 29.93 in West 7.4 mph 13 mph 66.4% 0.00 in 654 W/m2
16:54 73.2 °F 61.5 °F 29.93 in West 3.9 mph 13 mph 66.8% 0.00 in 680 W/m2
16:59 73.3 °F 61.3 °F 29.93 in West 7.7 mph 13 mph 66% 0.00 in 508 W/m2
17:04 72.4 °F 61.1 °F 29.93 in NW 8.3 mph 13 mph 67.4% 0.00 in 213 W/m2
17:09 72 °F 61 °F 29.93 in NW 7.8 mph 17 mph 68.4% 0.00 in 352 W/m2
17:14 71.9 °F 61.1 °F 29.93 in WNW 7.8 mph 17 mph 69% 0.00 in 197 W/m2
17:19 71.7 °F 60.9 °F 29.93 in WNW 5.4 mph 12 mph 69% 0.00 in 308 W/m2
17:24 72 °F 61 °F 29.93 in WNW 10.8 mph 17 mph 68.2% 0.00 in 529 W/m2
17:29 72 °F 60.6 °F 29.93 in West 8.6 mph 14 mph 67.4% 0.00 in 512 W/m2
17:34 72.1 °F 60.6 °F 29.93 in WNW 7.6 mph 15 mph 67.2% 0.00 in 459 W/m2
17:39 72.3 °F 60.8 °F 29.93 in WNW 6.3 mph 15 mph 67% 0.00 in 446 W/m2
17:44 72.8 °F 61.2 °F 29.93 in WNW 5.6 mph 12 mph 67% 0.00 in 427 W/m2
17:49 72.4 °F 61.1 °F 29.93 in WNW 6.6 mph 12 mph 67.6% 0.00 in 406 W/m2
17:54 72.2 °F 61.1 °F 29.93 in West 4.2 mph 11 mph 68% 0.00 in 448 W/m2
17:59 72.5 °F 61.3 °F 29.93 in West 9.2 mph 15 mph 67.8% 0.00 in 348 W/m2
18:04 72.1 °F 61 °F 29.93 in West 6.8 mph 15 mph 68% 0.00 in 478 W/m2
18:09 71.9 °F 60.7 °F 29.93 in West 7.9 mph 13 mph 68% 0.00 in 462 W/m2
18:14 71.8 °F 60.7 °F 29.93 in West 7.1 mph 12 mph 68.4% 0.00 in 220 W/m2
18:19 71.4 °F 61 °F 29.93 in West 7.8 mph 13 mph 69.4% 0.00 in 197 W/m2
18:24 71.2 °F 61.2 °F 29.93 in WNW 4.7 mph 13 mph 70.6% 0.00 in 334 W/m2
18:29 71 °F 61.1 °F 29.93 in WNW 7.2 mph 13 mph 71% 0.00 in 262 W/m2
18:34 70.8 °F 61.1 °F 29.94 in WNW 8.6 mph 14 mph 71.6% 0.00 in 396 W/m2
18:39 70.4 °F 60.9 °F 29.94 in WNW 6.7 mph 13 mph 72% 0.00 in 290 W/m2
18:44 70.3 °F 60.8 °F 29.94 in NW 6.8 mph 12 mph 72% 0.00 in 267 W/m2
18:49 70.2 °F 60.6 °F 29.94 in WNW 5.1 mph 10 mph 72% 0.00 in 98 W/m2
18:54 69.8 °F 60.4 °F 29.94 in WNW 5.7 mph 11 mph 72% 0.00 in 144 W/m2
18:59 70 °F 60.5 °F 29.94 in WNW 4.9 mph 10 mph 72% 0.00 in 260 W/m2
19:04 70.3 °F 60.3 °F 29.93 in WNW 4.8 mph 11 mph 70.8% 0.00 in 234 W/m2
19:09 70.3 °F 60.1 °F 29.94 in WNW 5.3 mph 11 mph 70% 0.00 in 206 W/m2
19:14 70.2 °F 59.9 °F 29.93 in WNW 6.2 mph 9 mph 70% 0.00 in 188 W/m2
19:19 70.2 °F 59.8 °F 29.94 in West 6.7 mph 13 mph 69.8% 0.00 in 174 W/m2
19:24 69.8 °F 59.5 °F 29.94 in WNW 7.6 mph 13 mph 70% 0.00 in 162 W/m2
19:29 69.8 °F 59.6 °F 29.94 in WNW 6 mph 11 mph 70% 0.00 in 155 W/m2
19:34 69.3 °F 59.3 °F 29.94 in WNW 6.8 mph 12 mph 70.4% 0.00 in 155 W/m2
19:39 68.7 °F 59.1 °F 29.94 in West 5.8 mph 14 mph 71.2% 0.00 in 127 W/m2
19:44 68.3 °F 59 °F 29.94 in WNW 7.1 mph 11 mph 72.2% 0.00 in 63 W/m2
19:49 67.9 °F 58.9 °F 29.94 in WNW 3.7 mph 10 mph 73% 0.00 in 56 W/m2
19:54 67.7 °F 59.1 °F 29.94 in WNW 5.8 mph 9 mph 74% 0.00 in 51 W/m2
19:59 67.6 °F 59.2 °F 29.94 in WNW 4.5 mph 9 mph 74.6% 0.00 in 47 W/m2
20:04 67.5 °F 59.2 °F 29.94 in WNW 6.3 mph 13 mph 75% 0.00 in 39 W/m2
20:09 67.3 °F 59 °F 29.94 in WNW 3.9 mph 12 mph 75% 0.00 in 26 W/m2
20:14 67 °F 59 °F 29.95 in WNW 5.3 mph 10 mph 75.4% 0.00 in 19 W/m2
20:19 66.7 °F 59 °F 29.95 in West 4.8 mph 13 mph 76% 0.00 in 14 W/m2
20:24 66.6 °F 58.8 °F 29.95 in WNW 6 mph 10 mph 76% 0.00 in 12 W/m2
20:29 66.4 °F 58.6 °F 29.95 in West 3.2 mph 10 mph 76% 0.00 in 12 W/m2
20:34 66.3 °F 58.6 °F 29.95 in West 4.8 mph 9 mph 76% 0.00 in 9 W/m2
20:39 66.1 °F 58.7 °F 29.95 in West 3 mph 8 mph 77% 0.00 in 5 W/m2
20:44 66.1 °F 58.7 °F 29.95 in West 3.5 mph 6 mph 77% 0.00 in 5 W/m2
20:49 66 °F 58.6 °F 29.95 in West 4 mph 8 mph 77% 0.00 in 0 W/m2
20:54 66 °F 58.6 °F 29.95 in West 1.9 mph 7 mph 77% 0.00 in 0 W/m2
20:59 65.9 °F 58.6 °F 29.95 in West 4.6 mph 8 mph 77% 0.00 in 0 W/m2
21:04 65.8 °F 58.5 °F 29.96 in West 3.7 mph 6 mph 77% 0.00 in 0 W/m2
21:09 65.8 °F 58.5 °F 29.95 in West 3.6 mph 5 mph 77% 0.00 in 0 W/m2
21:14 65.7 °F 58.3 °F 29.96 in West 3.2 mph 6 mph 77% 0.00 in 0 W/m2
21:19 65.7 °F 58.3 °F 29.96 in West 2.5 mph 6 mph 77% 0.00 in 0 W/m2
21:24 65.6 °F 58.2 °F 29.96 in West 3.2 mph 5 mph 77% 0.00 in 0 W/m2
21:29 65.5 °F 58.1 °F 29.96 in West 2.6 mph 5 mph 77% 0.00 in 0 W/m2
21:34 65.4 °F 58 °F 29.96 in West 3.3 mph 6 mph 77% 0.00 in 0 W/m2
21:39 65.1 °F 57.8 °F 29.96 in West 3.6 mph 9 mph 77.4% 0.00 in 0 W/m2
21:44 64.9 °F 57.8 °F 29.96 in WNW 4.1 mph 7 mph 77.8% 0.00 in 0 W/m2
21:49 64.7 °F 57.5 °F 29.96 in West 2.6 mph 7 mph 77.4% 0.00 in 0 W/m2
21:54 64.6 °F 57.6 °F 29.96 in West 3.8 mph 7 mph 78% 0.00 in 0 W/m2
21:59 64.3 °F 57.3 °F 29.96 in West 3 mph 7 mph 78% 0.00 in 0 W/m2
22:04 64 °F 57 °F 29.96 in WNW 3.3 mph 6 mph 78% 0.00 in 0 W/m2
22:09 63.9 °F 56.8 °F 29.96 in West 1 mph 6 mph 78% 0.00 in 0 W/m2
22:14 63.8 °F 56.7 °F 29.96 in West 3.7 mph 6 mph 78% 0.00 in 0 W/m2
22:19 63.4 °F 56.4 °F 29.96 in West 2.6 mph 4 mph 78% 0.00 in 0 W/m2
22:24 63.3 °F 56.3 °F 29.96 in West 2.5 mph 7 mph 78% 0.00 in 0 W/m2
22:29 63.1 °F 56.1 °F 29.96 in West 2.6 mph 5 mph 78% 0.00 in 0 W/m2
22:34 63.1 °F 56.1 °F 29.96 in West 2.8 mph 5 mph 78% 0.00 in 0 W/m2
22:39 63 °F 55.9 °F 29.96 in West 2.2 mph 5 mph 78% 0.00 in 0 W/m2
22:44 62.9 °F 55.8 °F 29.96 in West 2.5 mph 5 mph 78% 0.00 in 0 W/m2
22:49 62.8 °F 55.8 °F 29.96 in West 3 mph 5 mph 78% 0.00 in 0 W/m2
22:54 62.5 °F 55.8 °F 29.96 in West 4.1 mph 6 mph 78.8% 0.00 in 0 W/m2
22:59 62.2 °F 55.6 °F 29.96 in West 3 mph 6 mph 79% 0.00 in 0 W/m2
23:04 62.1 °F 55.8 °F 29.96 in West 2.4 mph 5 mph 80% 0.00 in 0 W/m2
23:09 61.9 °F 55.7 °F 29.96 in West 2.5 mph 4 mph 80.4% 0.00 in 0 W/m2
23:14 61.6 °F 55.7 °F 29.96 in West 2.4 mph 4 mph 81% 0.00 in 0 W/m2
23:19 61.5 °F 55.7 °F 29.96 in West 1.9 mph 4 mph 81.2% 0.00 in 0 W/m2
23:24 61.3 °F 55.8 °F 29.96 in West 2 mph 4 mph 82% 0.00 in 0 W/m2
23:29 61.3 °F 55.8 °F 29.96 in West 2 mph 3 mph 82% 0.00 in 0 W/m2
23:34 61.2 °F 55.6 °F 29.96 in West 3.1 mph 5 mph 82% 0.00 in 0 W/m2
23:39 61.2 °F 55.9 °F 29.96 in West 3.2 mph 4 mph 83% 0.00 in 0 W/m2
23:44 61.2 °F 55.9 °F 29.96 in West 3 mph 4 mph 83% 0.00 in 0 W/m2
23:49 61.2 °F 55.9 °F 29.96 in West 2.4 mph 4 mph 83% 0.00 in 0 W/m2
23:54 61.2 °F 55.9 °F 29.96 in West 2.8 mph 5 mph 83% 0.00 in 0 W/m2
23:59 61.3 °F 56.1 °F 29.96 in West 2.4 mph 4 mph 83% 0.00 in 0 W/m2
Bath Spa Weather
Compliments of Weather Underground - 2 mb